Time;durP1;ratioP1;P1;durP2;ratioP2;P2;SDS_P1;SDS_P2;PMS_P1;PMS_P2;Temp;Humidity;BMP_temperature;BMP_pressure;BME280_temperature;BME280_humidity;BME280_pressure;Samples;Min_cycle;Max_cycle;Signal;HPM_P1;HPM_P2
2022/11/21 00:00:44;;;;;;;;;;;;;;;13.80;84.10;93918.53;5053361;28;1050;-59
2022/11/21 00:03:10;;;;;;;;;;;;;;;13.69;84.08;93922.69;5035620;28;1046;-59
2022/11/21 00:05:41;;;;;;;;;;;;;;;13.73;84.01;93910.47;5053520;28;1124;-59
2022/11/21 00:08:07;;;;;;;;;;;;;;;13.76;82.09;93910.06;5053285;28;1102;-59
2022/11/21 00:10:35;;;;;;;;;;;;;;;13.69;82.35;93903.88;5053344;28;1050;-59
2022/11/21 00:13:01;;;;;;;;;;;;;;;13.63;82.80;93896.66;5053381;28;1022;-59
2022/11/21 00:15:27;;;;;;;;;;;;;;;13.62;82.89;93893.16;5053247;28;1050;-59
2022/11/21 00:17:53;;;;;;;;;;;;;;;13.61;83.15;93877.25;5053069;28;1985;-59
2022/11/21 00:20:20;;;;;;;;;;;;;;;13.58;83.72;93874.97;5053103;28;1070;-59
2022/11/21 00:22:46;;;;;;;;;;;;;;;13.42;84.39;93869.03;5052936;28;1120;-59
2022/11/21 00:25:13;;;;;;;;;;;;;;;13.57;83.64;93859.91;5035523;28;1089;-59
2022/11/21 00:27:39;;;;;;;;;;;;;;;13.60;83.44;93857.66;5035572;28;971;-59
2022/11/21 00:30:06;;;;;;;;;;;;;;;13.56;84.03;93848.34;5035401;28;1109;-59
2022/11/21 00:32:33;;;;;;;;;;;;;;;13.61;84.23;93848.53;5052965;28;1073;-59
2022/11/21 00:34:59;;;;;;;;;;;;;;;13.67;82.59;93850.38;5053288;28;1064;-59
2022/11/21 00:37:25;;;;;;;;;;;;;;;13.69;82.47;93844.78;5054481;28;1914;-59
2022/11/21 00:39:51;;;;;;;;;;;;;;;13.55;83.72;93849.38;5057017;28;1751;-59
2022/11/21 00:42:17;;;;;;;;;;;;;;;13.51;84.83;93842.78;5056930;28;1054;-59
2022/11/21 00:44:43;;;;;;;;;;;;;;;13.57;84.88;93846.50;5057098;28;1065;-59
2022/11/21 00:47:09;;;;;;;;;;;;;;;13.71;83.56;93844.59;5056973;28;1086;-59
2022/11/21 00:49:35;;;;;;;;;;;;;;;13.77;83.18;93852.63;5057078;28;1038;-59
2022/11/21 00:52:02;;;;;;;;;;;;;;;13.77;83.93;93849.94;5039356;28;1478;-59
2022/11/21 00:54:28;;;;;;;;;;;;;;;13.89;84.20;93865.38;5056759;28;1677;-59
2022/11/21 00:56:54;;;;;;;;;;;;;;;13.88;84.38;93879.84;5056553;28;1945;-59
2022/11/21 00:59:20;;;;;;;;;;;;;;;13.98;83.73;93880.22;5056764;28;1030;-59
2022/11/21 01:01:46;;;;;;;;;;;;;;;13.99;83.56;93876.50;5056736;28;1017;-59
2022/11/21 01:04:12;;;;;;;;;;;;;;;14.03;83.04;93870.47;5056613;28;1219;-59
2022/11/21 01:06:38;;;;;;;;;;;;;;;14.01;83.42;93864.50;5056713;28;994;-59
2022/11/21 01:09:04;;;;;;;;;;;;;;;13.96;83.15;93868.84;5056728;28;1018;-59
2022/11/21 01:11:30;;;;;;;;;;;;;;;13.90;83.49;93862.47;5056582;28;971;-59
2022/11/21 01:13:56;;;;;;;;;;;;;;;13.85;83.78;93859.63;5056484;28;1180;-59
2022/11/21 01:16:23;;;;;;;;;;;;;;;13.77;84.06;93863.38;5056301;28;1995;-59
2022/11/21 01:18:50;;;;;;;;;;;;;;;13.77;84.53;93866.06;5056624;28;1061;-59
2022/11/21 01:21:16;;;;;;;;;;;;;;;13.90;84.31;93856.28;5056200;28;1152;-59
2022/11/21 01:23:42;;;;;;;;;;;;;;;14.03;83.98;93850.84;5056249;28;1077;-59
2022/11/21 01:26:10;;;;;;;;;;;;;;;14.10;83.96;93850.84;5056344;28;1077;-59
2022/11/21 01:28:36;;;;;;;;;;;;;;;14.21;83.23;93855.53;5056125;28;1059;-59
2022/11/21 01:31:03;;;;;;;;;;;;;;;14.13;83.48;93859.25;5038456;28;1038;-59
2022/11/21 01:33:29;;;;;;;;;;;;;;;14.02;83.64;93854.59;5056241;28;1068;-59
2022/11/21 01:35:55;;;;;;;;;;;;;;;14.01;84.28;93855.63;5055942;28;1917;-59
2022/11/21 01:38:21;;;;;;;;;;;;;;;14.14;84.15;93852.06;5038302;28;1518;-59
2022/11/21 01:40:47;;;;;;;;;;;;;;;14.19;83.35;93852.22;5056113;28;1034;-59
2022/11/21 01:43:14;;;;;;;;;;;;;;;14.21;83.20;93844.78;5055852;28;1106;-59
2022/11/21 01:45:49;;;;;;;;;;;;;;;14.18;83.17;93840.63;5055788;28;1046;-59
2022/11/21 01:48:15;;;;;;;;;;;;;;;14.05;83.95;93838.03;5055670;28;1049;-59
2022/11/21 01:50:41;;;;;;;;;;;;;;;14.00;83.88;93843.22;5055961;28;1088;-59
2022/11/21 01:53:07;;;;;;;;;;;;;;;14.02;84.09;93835.78;5055847;28;966;-59
2022/11/21 01:55:34;;;;;;;;;;;;;;;14.11;83.40;93834.47;5055416;28;1610;-59
2022/11/21 01:58:01;;;;;;;;;;;;;;;14.09;83.55;93831.19;5055651;28;1906;-59
2022/11/21 02:00:30;;;;;;;;;;;;;;;14.01;84.26;93829.56;5055401;28;1105;-59
2022/11/21 02:02:59;;;;;;;;;;;;;;;14.02;84.40;93830.41;5055505;28;1231;-59
2022/11/21 02:05:28;;;;;;;;;;;;;;;14.15;83.63;93824.97;5055351;28;1102;-59
2022/11/21 02:07:56;;;;;;;;;;;;;;;14.20;83.50;93824.31;5055524;28;1049;-59
2022/11/21 02:10:22;;;;;;;;;;;;;;;14.27;82.72;93822.41;5055286;28;1066;-59
2022/11/21 02:12:50;;;;;;;;;;;;;;;14.19;82.81;93823.50;5055343;28;1034;-59
2022/11/21 02:15:17;;;;;;;;;;;;;;;14.12;82.93;93822.69;5055515;28;1045;-59
2022/11/21 02:17:43;;;;;;;;;;;;;;;14.02;83.66;93819.66;5055404;28;1991;-59
2022/11/21 02:20:11;;;;;;;;;;;;;;;14.04;83.91;93817.59;5055375;28;1038;-59
2022/11/21 02:23:01;;;;;;;;;;;;;;;14.13;83.26;93818.13;5055198;28;1126;-59
2022/11/21 02:25:31;;;;;;;;;;;;;;;14.16;82.89;93813.16;5055071;28;1005;-59
2022/11/21 02:27:58;;;;;;;;;;;;;;;14.05;83.29;93811.16;5055076;28;1586;-59
2022/11/21 02:30:26;;;;;;;;;;;;;;;14.05;83.20;93806.59;5054918;28;1109;-59
2022/11/21 02:32:52;;;;;;;;;;;;;;;14.12;83.12;93811.13;5054926;28;1058;-59
2022/11/21 02:35:18;;;;;;;;;;;;;;;14.18;82.98;93816.44;5054927;28;1094;-59
2022/11/21 02:37:47;;;;;;;;;;;;;;;14.23;82.29;93813.94;5054748;28;1906;-59
2022/11/21 02:40:17;;;;;;;;;;;;;;;14.29;82.19;93816.81;5054798;28;998;-59
2022/11/21 02:42:55;;;;;;;;;;;;;;;14.28;81.79;93815.16;5055237;28;973;-59
2022/11/21 02:45:27;;;;;;;;;;;;;;;14.21;82.28;93813.34;5054830;28;1052;-59
2022/11/21 02:47:54;;;;;;;;;;;;;;;14.25;81.53;93824.50;5054793;28;1153;-59
2022/11/21 02:50:20;;;;;;;;;;;;;;;14.24;80.61;93815.56;5054617;28;1046;-59
2022/11/21 02:52:46;;;;;;;;;;;;;;;14.19;82.25;93823.50;5054627;28;1017;-59
2022/11/21 02:55:14;;;;;;;;;;;;;;;14.22;82.21;93833.78;5054489;28;1629;-59
2022/11/21 02:57:41;;;;;;;;;;;;;;;14.25;81.69;93835.25;5054455;28;1910;-59
2022/11/21 03:00:07;;;;;;;;;;;;;;;14.23;82.13;93832.75;5053913;28;1029;-59
2022/11/21 03:02:34;;;;;;;;;;;;;;;14.24;81.90;93844.34;5054364;28;923;-59
2022/11/21 03:05:00;;;;;;;;;;;;;;;14.16;82.36;93836.53;5054345;28;1889;-59
2022/11/21 03:07:26;;;;;;;;;;;;;;;14.02;83.05;93823.16;5054194;28;1069;-59
2022/11/21 03:09:52;;;;;;;;;;;;;;;13.97;83.86;93811.41;5054500;28;1056;-59
2022/11/21 03:12:18;;;;;;;;;;;;;;;13.91;83.98;93812.28;5036580;28;1515;-59
2022/11/21 03:14:44;;;;;;;;;;;;;;;13.94;81.25;93815.34;5036646;28;995;-59
2022/11/21 03:17:10;;;;;;;;;;;;;;;13.96;80.55;93817.81;5054065;28;1898;-59
2022/11/21 03:19:36;;;;;;;;;;;;;;;13.93;79.71;93807.50;5054079;28;1001;-59
2022/11/21 03:22:03;;;;;;;;;;;;;;;13.95;79.04;93821.56;5054077;28;962;-59
2022/11/21 03:24:29;;;;;;;;;;;;;;;13.99;79.83;93814.72;5053885;28;1071;-59
2022/11/21 03:26:55;;;;;;;;;;;;;;;13.94;79.02;93815.34;5054142;28;1046;-59
2022/11/21 03:29:21;;;;;;;;;;;;;;;13.94;78.34;93809.16;5053851;28;1054;-59
2022/11/21 03:31:47;;;;;;;;;;;;;;;13.94;78.51;93817.19;5053872;28;1033;-59
2022/11/21 03:34:13;;;;;;;;;;;;;;;13.98;78.28;93810.34;5053868;28;1050;-59
2022/11/21 03:36:39;;;;;;;;;;;;;;;13.99;78.32;93814.72;5035897;28;1906;-59
2022/11/21 03:39:05;;;;;;;;;;;;;;;13.98;77.68;93807.66;5053687;28;1684;-60
2022/11/21 03:41:31;;;;;;;;;;;;;;;13.99;77.44;93817.38;5053557;28;1046;-60
2022/11/21 03:44:02;;;;;;;;;;;;;;;13.97;77.43;93814.91;5053642;28;1121;-59
2022/11/21 03:46:29;;;;;;;;;;;;;;;13.95;77.12;93806.25;5053586;28;1029;-59
2022/11/21 03:48:55;;;;;;;;;;;;;;;13.96;76.51;93809.75;5053591;28;1045;-60
2022/11/21 03:51:21;;;;;;;;;;;;;;;13.98;76.78;93805.81;5053511;28;1038;-59
2022/11/21 03:53:47;;;;;;;;;;;;;;;13.97;76.34;93803.34;5053717;28;987;-59
2022/11/21 03:56:14;;;;;;;;;;;;;;;14.00;76.38;93802.91;5053113;28;1906;-60
2022/11/21 03:58:40;;;;;;;;;;;;;;;13.95;76.24;93808.94;5035880;28;1501;-60
2022/11/21 04:01:06;;;;;;;;;;;;;;;13.92;76.99;93813.91;5053512;28;967;-60
2022/11/21 04:03:32;;;;;;;;;;;;;;;13.90;76.75;93819.50;5053311;28;1041;-60
2022/11/21 04:05:59;;;;;;;;;;;;;;;13.91;76.24;93810.41;5053380;28;1869;-59
2022/11/21 04:08:25;;;;;;;;;;;;;;;13.94;75.10;93812.66;5035748;28;1438;-59
2022/11/21 04:10:52;;;;;;;;;;;;;;;13.98;75.70;93815.72;5053238;28;1152;-59
2022/11/21 04:13:18;;;;;;;;;;;;;;;13.97;75.69;93808.72;5053313;28;968;-59
2022/11/21 04:15:45;;;;;;;;;;;;;;;13.94;75.80;93818.00;5035614;28;1051;-59
2022/11/21 04:18:11;;;;;;;;;;;;;;;13.98;75.70;93826.47;5053180;28;1121;-59
2022/11/21 04:20:38;;;;;;;;;;;;;;;14.05;75.32;93825.41;5053029;28;1050;-58
2022/11/21 04:23:05;;;;;;;;;;;;;;;14.01;75.25;93818.81;5053426;28;1057;-59
2022/11/21 04:25:31;;;;;;;;;;;;;;;14.04;75.46;93812.22;5053264;28;1009;-59
2022/11/21 04:27:58;;;;;;;;;;;;;;;14.08;75.63;93810.72;5035487;28;1193;-59
2022/11/21 04:30:24;;;;;;;;;;;;;;;14.03;75.47;93807.84;5053093;28;1050;-59
2022/11/21 04:32:51;;;;;;;;;;;;;;;14.01;74.78;93809.94;5053156;28;1064;-59
2022/11/21 04:35:17;;;;;;;;;;;;;;;14.05;75.60;93817.34;5052974;28;1065;-59
2022/11/21 04:37:43;;;;;;;;;;;;;;;14.05;75.98;93819.22;5053081;28;1910;-59
2022/11/21 04:40:10;;;;;;;;;;;;;;;14.05;75.81;93822.72;5052985;28;1101;-59
2022/11/21 04:42:36;;;;;;;;;;;;;;;14.10;74.86;93822.09;5035288;28;1538;-59
2022/11/21 04:45:02;;;;;;;;;;;;;;;14.09;74.84;93825.81;5053037;28;1036;-59
2022/11/21 04:47:28;;;;;;;;;;;;;;;14.09;75.09;93825.81;5052827;28;1034;-59
2022/11/21 04:49:54;;;;;;;;;;;;;;;14.08;75.59;93826.84;5052817;28;1047;-59
2022/11/21 04:52:21;;;;;;;;;;;;;;;14.03;74.77;93843.59;5052969;28;1045;-59
2022/11/21 04:54:47;;;;;;;;;;;;;;;14.05;74.65;93846.09;5035044;28;1693;-59
2022/11/21 04:57:13;;;;;;;;;;;;;;;14.10;74.51;93843.59;5034948;28;1914;-59
2022/11/21 04:59:39;;;;;;;;;;;;;;;14.13;73.73;93853.88;5052870;28;1040;-59
2022/11/21 05:02:05;;;;;;;;;;;;;;;14.12;73.15;93846.88;5035123;28;1054;-59
2022/11/21 05:04:31;;;;;;;;;;;;;;;14.09;73.60;93849.16;5035038;28;997;-59
2022/11/21 05:06:57;;;;;;;;;;;;;;;14.09;72.87;93855.38;5052979;28;1049;-59
2022/11/21 05:09:23;;;;;;;;;;;;;;;14.19;73.57;93860.28;5052875;28;993;-59
2022/11/21 05:14:34;;;;;;;;;;;;;;;14.18;72.10;93853.25;5052576;28;1050;-60
2022/11/21 05:17:00;;;;;;;;;;;;;;;14.25;71.91;93852.19;5052504;28;1906;-60
2022/11/21 05:19:26;;;;;;;;;;;;;;;14.20;72.51;93868.13;5052760;28;914;-59
2022/11/21 05:21:52;;;;;;;;;;;;;;;14.24;71.39;93866.66;5052798;28;1017;-59
2022/11/21 05:24:18;;;;;;;;;;;;;;;14.27;71.93;93868.09;5055159;28;1010;-59
2022/11/21 05:26:44;;;;;;;;;;;;;;;14.28;71.12;93868.94;5056211;28;1054;-59
2022/11/21 05:29:11;;;;;;;;;;;;;;;14.32;70.69;93870.94;5056219;28;1049;-59
2022/11/21 05:31:38;;;;;;;;;;;;;;;14.31;70.40;93874.69;5055997;28;1021;-59
2022/11/21 05:34:04;;;;;;;;;;;;;;;14.24;71.27;93881.97;5056116;28;1891;-59
2022/11/21 05:36:30;;;;;;;;;;;;;;;14.19;71.53;93885.31;5055857;28;1906;-59
2022/11/21 05:38:56;;;;;;;;;;;;;;;14.23;70.85;93878.47;5055902;28;1515;-59
2022/11/21 05:41:22;;;;;;;;;;;;;;;14.31;70.58;93881.94;5055935;28;990;-59
2022/11/21 05:43:49;;;;;;;;;;;;;;;14.31;70.45;93895.38;5055973;28;1025;-59
2022/11/21 05:46:16;;;;;;;;;;;;;;;14.30;69.96;93893.72;5055702;28;1070;-59
2022/11/21 05:48:42;;;;;;;;;;;;;;;14.31;70.50;93898.06;5056110;28;974;-59
2022/11/21 05:51:08;;;;;;;;;;;;;;;14.24;69.82;93911.53;5055763;28;1102;-59
2022/11/21 05:53:34;;;;;;;;;;;;;;;14.28;70.33;93909.25;5055776;28;1014;-59
2022/11/21 05:56:02;;;;;;;;;;;;;;;14.34;70.46;93916.44;5055408;28;1906;-58
2022/11/21 05:58:29;;;;;;;;;;;;;;;14.33;70.51;93912.13;5055712;28;1040;-59
2022/11/21 06:00:56;;;;;;;;;;;;;;;14.33;71.10;93920.19;5055554;28;1089;-59
2022/11/21 06:03:25;;;;;;;;;;;;;;;14.28;71.00;93926.19;5055510;28;1042;-59
2022/11/21 06:06:02;;;;;;;;;;;;;;;14.28;70.95;93928.06;5055475;28;1121;-59
2022/11/21 06:08:29;;;;;;;;;;;;;;;14.34;71.36;93935.28;5055520;28;959;-59
2022/11/21 06:10:55;;;;;;;;;;;;;;;14.30;71.17;93936.75;5055435;28;1045;-59
2022/11/21 06:13:21;;;;;;;;;;;;;;;14.37;71.53;93932.97;5037531;28;1046;-58
2022/11/21 06:15:48;;;;;;;;;;;;;;;14.52;70.72;93939.94;5055521;28;1042;-59
2022/11/21 06:18:15;;;;;;;;;;;;;;;14.57;70.19;93949.06;5055478;28;1054;-60
2022/11/21 06:20:41;;;;;;;;;;;;;;;14.52;70.38;93942.66;5055352;28;1045;-59
2022/11/21 06:23:07;;;;;;;;;;;;;;;14.53;70.33;93955.03;5055298;28;1073;-59
2022/11/21 06:25:33;;;;;;;;;;;;;;;14.59;70.66;93965.81;5055280;28;997;-59
2022/11/21 06:27:59;;;;;;;;;;;;;;;14.69;70.95;93969.91;5037445;28;1865;-60
2022/11/21 06:30:25;;;;;;;;;;;;;;;14.75;70.97;93977.09;5054865;28;1077;-60
2022/11/21 06:32:51;;;;;;;;;;;;;;;14.70;70.41;93976.91;5055255;28;1040;-59
2022/11/21 06:35:17;;;;;;;;;;;;;;;14.76;70.36;93976.03;5054015;28;981;-60
2022/11/21 06:37:43;;;;;;;;;;;;;;;14.77;70.02;93981.22;5054798;28;1890;-60
2022/11/21 06:40:10;;;;;;;;;;;;;;;14.76;70.00;93984.97;5054837;28;1098;-60
2022/11/21 06:42:37;;;;;;;;;;;;;;;14.71;69.58;93994.72;5037125;28;1297;-59
2022/11/21 06:45:03;;;;;;;;;;;;;;;14.62;69.98;93989.56;5054890;28;1042;-59
2022/11/21 06:47:33;;;;;;;;;;;;;;;14.53;70.45;93990.84;5054873;28;1041;-59
2022/11/21 06:49:59;;;;;;;;;;;;;;;14.61;70.41;94003.25;5054808;28;1049;-60
2022/11/21 06:52:25;;;;;;;;;;;;;;;14.56;70.08;94011.09;5037005;28;1010;-60
2022/11/21 06:54:52;;;;;;;;;;;;;;;14.50;70.78;94010.09;5054524;28;1630;-60
2022/11/21 06:57:18;;;;;;;;;;;;;;;14.40;70.13;94023.16;5054235;28;2017;-60
2022/11/21 06:59:44;;;;;;;;;;;;;;;14.57;70.04;94032.44;5054750;28;1033;-59
2022/11/21 07:02:13;;;;;;;;;;;;;;;14.49;69.81;94040.69;5054675;28;1051;-59
2022/11/21 07:04:39;;;;;;;;;;;;;;;14.62;70.78;94047.94;5054312;28;1058;-60
2022/11/21 07:07:05;;;;;;;;;;;;;;;14.78;70.79;94063.59;5054309;28;1026;-60
2022/11/21 07:09:32;;;;;;;;;;;;;;;14.78;70.74;94068.97;5054316;28;1065;-59
2022/11/21 07:13:20;;;;;;;;;;;;;;;14.70;71.64;94071.06;5054198;28;1127;-60
2022/11/21 07:14:44;;;;;;;;;;;;;;;14.67;71.86;94066.94;5054269;28;1050;-61
2022/11/21 07:17:11;;;;;;;;;;;;;;;14.48;73.23;94090.16;5054269;28;1902;-62
2022/11/21 07:19:37;;;;;;;;;;;;;;;14.54;73.10;94093.88;5036395;28;1098;-62
2022/11/21 07:22:03;;;;;;;;;;;;;;;14.50;73.50;94090.75;5054202;28;1282;-60
2022/11/21 07:24:29;;;;;;;;;;;;;;;14.67;72.88;94095.72;5053930;28;1046;-60
2022/11/21 07:26:55;;;;;;;;;;;;;;;14.83;72.12;94097.91;5054239;28;1037;-60
2022/11/21 07:29:21;;;;;;;;;;;;;;;14.98;71.25;94103.03;5054051;28;1044;-62
2022/11/21 07:31:47;;;;;;;;;;;;;;;15.05;71.03;94103.03;5053920;28;1046;-60
2022/11/21 07:34:13;;;;;;;;;;;;;;;15.09;71.00;94113.13;5053954;28;1101;-60
2022/11/21 07:36:39;;;;;;;;;;;;;;;15.06;71.68;94118.13;5053812;28;1988;-60
2022/11/21 07:39:05;;;;;;;;;;;;;;;14.95;71.98;94128.53;5053677;28;1436;-60
2022/11/21 07:41:31;;;;;;;;;;;;;;;15.00;71.80;94135.94;5053888;28;994;-59
2022/11/21 07:43:57;;;;;;;;;;;;;;;15.07;71.86;94130.56;5053908;28;1021;-60
2022/11/21 07:46:24;;;;;;;;;;;;;;;15.08;71.75;94127.66;5053321;28;1038;-60
2022/11/21 07:48:50;;;;;;;;;;;;;;;15.23;71.63;94135.44;5053743;28;1053;-60
2022/11/21 07:51:16;;;;;;;;;;;;;;;15.32;70.75;94134.16;5035826;28;1054;-60
2022/11/21 07:53:42;;;;;;;;;;;;;;;15.36;69.50;94129.16;5053546;28;1033;-60
2022/11/21 07:56:11;;;;;;;;;;;;;;;15.47;68.80;94128.47;5035655;28;1972;-60
2022/11/21 07:58:37;;;;;;;;;;;;;;;15.90;67.50;94124.31;5053371;28;1045;-74
2022/11/21 08:01:04;;;;;;;;;;;;;;;16.18;66.45;94127.38;5053581;28;1046;-61
2022/11/21 08:03:31;;;;;;;;;;;;;;;16.36;66.14;94133.88;5053335;28;1062;-60
2022/11/21 08:06:00;;;;;;;;;;;;;;;16.50;65.65;94146.16;5053374;28;1034;-60
2022/11/21 08:08:26;;;;;;;;;;;;;;;16.32;66.10;94151.53;5053226;28;966;-60
2022/11/21 08:10:52;;;;;;;;;;;;;;;15.92;67.28;94152.69;5053568;28;1050;-61
2022/11/21 08:13:18;;;;;;;;;;;;;;;15.72;67.97;94154.66;5053444;28;993;-60
2022/11/21 08:15:44;;;;;;;;;;;;;;;15.60;67.66;94157.22;5053455;28;1056;-60
2022/11/21 08:18:14;;;;;;;;;;;;;;;15.61;67.98;94156.16;5053160;28;1910;-60
2022/11/21 08:20:41;;;;;;;;;;;;;;;15.60;68.10;94154.50;5053295;28;1040;-60
2022/11/21 08:23:09;;;;;;;;;;;;;;;15.47;68.63;94157.28;5053148;28;1050;-60
2022/11/21 08:25:38;;;;;;;;;;;;;;;15.35;67.86;94157.97;5053289;28;1076;-60
2022/11/21 08:28:05;;;;;;;;;;;;;;;15.37;67.73;94163.16;5053292;28;1057;-60
2022/11/21 08:30:31;;;;;;;;;;;;;;;15.40;67.70;94162.69;5053166;28;1021;-60
2022/11/21 08:32:58;;;;;;;;;;;;;;;15.47;68.84;94162.66;5053223;28;1041;-60
2022/11/21 08:35:24;;;;;;;;;;;;;;;15.53;69.35;94168.00;5052940;28;1038;-60
2022/11/21 08:38:00;;;;;;;;;;;;;;;15.47;68.30;94173.44;5053153;28;1988;-60
2022/11/21 08:40:27;;;;;;;;;;;;;;;15.44;68.48;94172.00;5053134;28;995;-60
2022/11/21 08:43:00;;;;;;;;;;;;;;;15.56;69.15;94174.84;5052987;28;1117;-60
2022/11/21 08:45:26;;;;;;;;;;;;;;;15.73;68.58;94186.81;5052972;28;1013;-60
2022/11/21 08:47:53;;;;;;;;;;;;;;;16.42;66.31;94183.41;5052883;28;1046;-60
2022/11/21 08:50:21;;;;;;;;;;;;;;;16.88;63.69;94188.38;5053140;28;1045;-60
2022/11/21 08:52:47;;;;;;;;;;;;;;;16.67;64.76;94188.78;5053095;28;1041;-60
2022/11/21 08:55:14;;;;;;;;;;;;;;;16.60;64.65;94191.56;5052771;28;1611;-60
2022/11/21 08:57:41;;;;;;;;;;;;;;;16.23;65.96;94196.00;5052861;28;1991;-60
2022/11/21 09:00:08;;;;;;;;;;;;;;;15.99;67.01;94193.06;5056863;28;1053;-60
2022/11/21 09:02:34;;;;;;;;;;;;;;;15.87;67.62;94200.19;5056648;28;963;-60
2022/11/21 09:05:00;;;;;;;;;;;;;;;15.69;68.55;94199.03;5056908;28;1021;-60
2022/11/21 09:07:26;;;;;;;;;;;;;;;15.62;68.61;94199.06;5056745;28;1041;-60
2022/11/21 09:09:52;;;;;;;;;;;;;;;15.61;68.59;94199.25;5056559;28;1109;-60
2022/11/21 09:12:19;;;;;;;;;;;;;;;15.55;69.51;94203.63;5056631;28;1038;-60
2022/11/21 09:20:14;;;;;;;;;;;;;;;15.82;68.17;94198.13;5056421;28;1965;-60
2022/11/21 09:22:40;;;;;;;;;;;;;;;15.77;68.43;94204.19;5056416;28;1106;-60
2022/11/21 09:25:06;;;;;;;;;;;;;;;15.62;69.13;94192.84;5056424;28;1093;-59
2022/11/21 09:27:32;;;;;;;;;;;;;;;15.57;68.12;94200.72;5056211;28;1149;-60
2022/11/21 09:29:58;;;;;;;;;;;;;;;15.60;68.24;94200.31;5056149;28;1134;-60
2022/11/21 09:32:24;;;;;;;;;;;;;;;15.66;68.22;94198.63;5056074;28;1050;-60
2022/11/21 09:34:50;;;;;;;;;;;;;;;15.62;68.31;94192.84;5038470;28;934;-60
2022/11/21 09:37:16;;;;;;;;;;;;;;;15.65;68.50;94196.97;5056095;28;1987;-60
2022/11/21 09:39:42;;;;;;;;;;;;;;;15.69;69.34;94193.63;5055964;28;1754;-60
2022/11/21 09:42:25;;;;;;;;;;;;;;;15.69;69.14;94201.72;5056029;28;1050;-60
2022/11/21 09:44:59;;;;;;;;;;;;;;;15.67;69.41;94206.50;5056263;28;1244;-60
2022/11/21 09:47:27;;;;;;;;;;;;;;;15.53;69.56;94199.53;5056024;28;1141;-60
2022/11/21 09:49:58;;;;;;;;;;;;;;;15.58;69.57;94197.00;5055866;28;1084;-60
2022/11/21 09:52:29;;;;;;;;;;;;;;;15.37;68.79;94196.28;5055770;28;1109;-60
2022/11/21 09:54:58;;;;;;;;;;;;;;;15.09;68.21;94193.06;5055452;28;1614;-60
2022/11/21 09:57:24;;;;;;;;;;;;;;;15.03;69.67;94192.88;5055842;28;1914;-60
2022/11/21 09:59:51;;;;;;;;;;;;;;;15.27;69.82;94187.84;5055888;28;977;-60
2022/11/21 10:02:19;;;;;;;;;;;;;;;15.31;69.54;94191.75;5055670;28;1041;-60
2022/11/21 10:04:45;;;;;;;;;;;;;;;15.34;69.59;94190.50;5055709;28;970;-60
2022/11/21 10:07:17;;;;;;;;;;;;;;;15.27;69.92;94189.69;5055564;28;974;-60
2022/11/21 10:09:58;;;;;;;;;;;;;;;15.29;69.12;94185.75;5055273;28;1049;-60
2022/11/21 10:12:36;;;;;;;;;;;;;;;15.30;69.74;94190.09;5055625;28;973;-60
2022/11/21 10:15:06;;;;;;;;;;;;;;;15.23;69.88;94182.06;5055578;28;1094;-60
2022/11/21 10:17:58;;;;;;;;;;;;;;;15.29;69.80;94183.06;5055282;28;1910;-60
2022/11/21 10:20:33;;;;;;;;;;;;;;;15.38;68.26;94176.38;5031904;28;1200;-60
2022/11/21 10:23:02;;;;;;;;;;;;;;;15.38;67.20;94173.69;5055264;28;1054;-60
2022/11/21 10:25:35;;;;;;;;;;;;;;;15.43;68.68;94179.25;5055287;28;1290;-60
2022/11/21 10:28:04;;;;;;;;;;;;;;;15.52;67.55;94173.63;5055089;28;1132;-60
2022/11/21 10:30:30;;;;;;;;;;;;;;;15.44;66.98;94185.47;5055020;28;1070;-60
2022/11/21 10:33:00;;;;;;;;;;;;;;;15.21;67.54;94185.97;5055284;28;1065;-60
2022/11/21 10:35:38;;;;;;;;;;;;;;;15.12;67.35;94182.72;5055100;28;962;-59
2022/11/21 10:38:15;;;;;;;;;;;;;;;14.99;68.30;94191.66;5054816;28;1986;-60
2022/11/21 10:40:44;;;;;;;;;;;;;;;15.03;68.52;94186.69;5055032;28;1058;-59
2022/11/21 10:45:58;;;;;;;;;;;;;;;15.01;66.96;94189.56;5055022;28;1072;-60
2022/11/21 10:48:24;;;;;;;;;;;;;;;15.15;67.59;94182.28;5054685;28;1066;-60
2022/11/21 10:50:53;;;;;;;;;;;;;;;15.73;65.36;94183.25;5054846;28;1061;-60
2022/11/21 10:56:20;;;;;;;;;;;;;;;16.50;62.17;94178.53;5054270;28;1909;-60
2022/11/21 10:58:47;;;;;;;;;;;;;;;16.59;62.29;94177.22;5054767;28;1041;-60
2022/11/21 11:01:23;;;;;;;;;;;;;;;16.93;61.25;94172.34;5036875;28;1151;-60
2022/11/21 11:04:07;;;;;;;;;;;;;;;17.09;59.54;94175.50;5054485;28;1293;-60
2022/11/21 11:06:34;;;;;;;;;;;;;;;17.33;59.72;94171.88;5054281;28;922;-60
2022/11/21 11:09:00;;;;;;;;;;;;;;;17.39;60.27;94164.75;5054530;28;1076;-60
2022/11/21 11:11:26;;;;;;;;;;;;;;;17.44;60.05;94174.88;5054367;28;1002;-60
2022/11/21 11:14:03;;;;;;;;;;;;;;;17.37;59.80;94166.84;5054350;28;993;-59
2022/11/21 11:16:30;;;;;;;;;;;;;;;17.06;60.45;94163.28;5054027;28;1909;-60
2022/11/21 11:18:59;;;;;;;;;;;;;;;16.77;60.55;94167.53;5054395;28;982;-60
2022/11/21 11:21:29;;;;;;;;;;;;;;;16.58;62.02;94167.47;5053451;28;1062;-60
2022/11/21 11:24:05;;;;;;;;;;;;;;;16.46;61.82;94163.84;5054046;28;1141;-60
2022/11/21 11:26:31;;;;;;;;;;;;;;;16.45;62.67;94164.91;5054062;28;1031;-60
2022/11/21 11:29:07;;;;;;;;;;;;;;;16.40;62.81;94160.16;5053846;28;1050;-60
2022/11/21 11:31:44;;;;;;;;;;;;;;;16.27;62.71;94165.66;5054095;28;966;-60
2022/11/21 11:34:10;;;;;;;;;;;;;;;16.30;63.27;94164.41;5053921;28;1045;-60
2022/11/21 11:36:43;;;;;;;;;;;;;;;16.23;62.56;94175.25;5053815;28;2000;-60
2022/11/21 11:39:17;;;;;;;;;;;;;;;16.03;63.43;94178.13;5053802;28;1445;-60
2022/11/21 11:48:00;;;;;;;;;;;;;;;15.80;63.95;94166.03;5053745;28;986;-60
2022/11/21 11:50:36;;;;;;;;;;;;;;;16.03;63.27;94167.34;5053552;28;1097;-60
2022/11/21 11:53:16;;;;;;;;;;;;;;;15.99;62.82;94176.88;5053739;28;1040;-60
2022/11/21 11:55:43;;;;;;;;;;;;;;;15.94;62.44;94180.25;5053056;28;1673;-60
2022/11/21 11:58:18;;;;;;;;;;;;;;;15.85;62.93;94180.72;5053375;28;1983;-60
2022/11/21 12:00:51;;;;;;;;;;;;;;;15.97;62.91;94177.13;5053699;28;1053;-60
2022/11/21 12:03:17;;;;;;;;;;;;;;;15.97;62.50;94174.44;5035945;28;1034;-60
2022/11/21 12:06:09;;;;;;;;;;;;;;;15.98;62.88;94167.97;5053589;28;998;-60
2022/11/21 12:08:42;;;;;;;;;;;;;;;15.99;62.52;94166.94;5050356;28;1265;-60
2022/11/21 12:15:47;;;;;;;;;;;;;;;16.00;62.90;94165.88;5053460;28;1035;-60
2022/11/21 12:17:05;;;;;;;;;;;;;;;15.92;62.98;94159.94;5053273;28;1906;-60
2022/11/21 12:19:32;;;;;;;;;;;;;;;15.93;63.02;94158.88;5053362;28;939;-60
2022/11/21 12:21:58;;;;;;;;;;;;;;;15.98;62.87;94159.88;5053404;28;975;-60
2022/11/21 12:24:24;;;;;;;;;;;;;;;16.04;62.48;94160.88;5053108;28;1046;-60
2022/11/21 12:27:04;;;;;;;;;;;;;;;16.15;61.62;94162.06;5053233;28;1045;-60
2022/11/21 12:29:56;;;;;;;;;;;;;;;16.15;61.88;94162.88;5035484;28;1018;-60
2022/11/21 12:32:33;;;;;;;;;;;;;;;16.13;62.57;94173.06;5053309;28;1045;-60
2022/11/21 12:35:16;;;;;;;;;;;;;;;16.09;62.00;94173.72;5057261;28;1037;-60
2022/11/21 12:37:42;;;;;;;;;;;;;;;15.93;62.73;94167.78;5057163;28;1962;-60
2022/11/21 12:40:08;;;;;;;;;;;;;;;16.03;61.88;94167.34;5039261;28;1635;-60
2022/11/21 12:42:53;;;;;;;;;;;;;;;15.95;62.43;94178.34;5057352;28;1060;-60
2022/11/21 12:45:31;;;;;;;;;;;;;;;15.83;62.85;94180.94;5057025;28;1121;-60
2022/11/21 12:56:44;;;;;;;;;;;;;;;15.47;63.75;94173.44;5036772;28;2006;-60
2022/11/21 12:59:12;;;;;;;;;;;;;;;15.46;63.77;94174.47;5036847;28;1070;-60
2022/11/21 13:01:42;;;;;;;;;;;;;;;15.47;63.83;94173.44;5036996;28;955;-60
2022/11/21 13:04:13;;;;;;;;;;;;;;;15.38;63.45;94180.94;5036741;28;1031;-60
2022/11/21 13:06:40;;;;;;;;;;;;;;;15.37;64.09;94176.59;5036837;28;971;-60
2022/11/21 13:09:11;;;;;;;;;;;;;;;15.29;64.34;94171.44;5036730;28;979;-60
2022/11/21 13:11:59;;;;;;;;;;;;;;;15.33;63.90;94184.28;5036593;28;1090;-60
2022/11/21 13:14:25;;;;;;;;;;;;;;;15.28;63.94;94183.28;5036714;28;966;-60
2022/11/21 13:17:11;;;;;;;;;;;;;;;15.33;64.51;94184.28;5036460;28;1907;-60
2022/11/21 13:19:40;;;;;;;;;;;;;;;15.34;64.44;94185.91;5029177;28;1317;-60
2022/11/21 13:22:26;;;;;;;;;;;;;;;15.29;63.38;94193.84;5036444;28;1057;-60
2022/11/21 13:24:53;;;;;;;;;;;;;;;15.23;64.19;94182.06;5036368;28;1138;-60
2022/11/21 13:27:30;;;;;;;;;;;;;;;15.28;64.89;94178.72;5036457;28;993;-60
2022/11/21 13:30:16;;;;;;;;;;;;;;;15.39;63.85;94186.13;5036314;28;1046;-60
2022/11/21 13:32:43;;;;;;;;;;;;;;;15.48;63.80;94185.84;5036070;28;1239;-60
2022/11/21 13:35:15;;;;;;;;;;;;;;;15.56;63.58;94188.31;5036472;28;1053;-60